sensor_id;sensor_type;location;lat;lon;timestamp;temperature;humidity
26621;DHT22;14253;44.840;10.444;2023-07-29T00:02:10;23.80;99.90
26621;DHT22;14253;44.840;10.444;2023-07-29T00:04:36;23.80;99.90
26621;DHT22;14253;44.840;10.444;2023-07-29T00:07:02;23.80;99.90
26621;DHT22;14253;44.840;10.444;2023-07-29T00:09:28;23.70;99.90
26621;DHT22;14253;44.840;10.444;2023-07-29T00:11:54;23.80;99.90
26621;DHT22;14253;44.840;10.444;2023-07-29T00:14:20;23.70;99.90
26621;DHT22;14253;44.840;10.444;2023-07-29T00:16:46;23.70;99.90
26621;DHT22;14253;44.840;10.444;2023-07-29T00:19:12;23.60;99.90
26621;DHT22;14253;44.840;10.444;2023-07-29T00:21:38;23.60;99.90
26621;DHT22;14253;44.840;10.444;2023-07-29T00:24:04;23.50;99.90
26621;DHT22;14253;44.840;10.444;2023-07-29T00:26:30;23.40;99.90
26621;DHT22;14253;44.840;10.444;2023-07-29T00:28:58;23.30;99.90
26621;DHT22;14253;44.840;10.444;2023-07-29T00:31:24;23.30;99.90
26621;DHT22;14253;44.840;10.444;2023-07-29T00:33:50;23.20;99.90
26621;DHT22;14253;44.840;10.444;2023-07-29T00:36:18;23.10;99.90
26621;DHT22;14253;44.840;10.444;2023-07-29T00:38:44;23.10;99.90
26621;DHT22;14253;44.840;10.444;2023-07-29T00:41:11;23.10;99.90
26621;DHT22;14253;44.840;10.444;2023-07-29T00:43:41;23.10;99.90
26621;DHT22;14253;44.840;10.444;2023-07-29T00:46:08;23.00;99.90
26621;DHT22;14253;44.840;10.444;2023-07-29T00:48:36;23.00;99.90
26621;DHT22;14253;44.840;10.444;2023-07-29T00:51:02;23.00;99.90
26621;DHT22;14253;44.840;10.444;2023-07-29T00:53:28;22.90;99.90
26621;DHT22;14253;44.840;10.444;2023-07-29T00:55:54;22.90;99.90
26621;DHT22;14253;44.840;10.444;2023-07-29T00:58:20;22.90;99.90
26621;DHT22;14253;44.840;10.444;2023-07-29T01:00:47;22.80;99.90
26621;DHT22;14253;44.840;10.444;2023-07-29T01:03:13;22.80;99.90
26621;DHT22;14253;44.840;10.444;2023-07-29T01:05:57;22.70;99.90
26621;DHT22;14253;44.840;10.444;2023-07-29T01:08:36;22.60;99.90
26621;DHT22;14253;44.840;10.444;2023-07-29T01:17:03;22.40;99.90
26621;DHT22;14253;44.840;10.444;2023-07-29T01:22:19;22.60;99.90
26621;DHT22;14253;44.840;10.444;2023-07-29T01:24:46;22.60;99.90
26621;DHT22;14253;44.840;10.444;2023-07-29T01:27:12;22.60;99.90
26621;DHT22;14253;44.840;10.444;2023-07-29T01:29:40;22.60;99.90
26621;DHT22;14253;44.840;10.444;2023-07-29T01:32:23;22.60;99.90
26621;DHT22;14253;44.840;10.444;2023-07-29T01:35:00;22.60;99.90
26621;DHT22;14253;44.840;10.444;2023-07-29T01:37:31;22.50;99.90
26621;DHT22;14253;44.840;10.444;2023-07-29T01:39:59;22.50;99.90
26621;DHT22;14253;44.840;10.444;2023-07-29T01:42:26;22.50;99.90
26621;DHT22;14253;44.840;10.444;2023-07-29T01:44:53;22.40;99.90
26621;DHT22;14253;44.840;10.444;2023-07-29T01:47:20;22.40;99.90
26621;DHT22;14253;44.840;10.444;2023-07-29T01:49:46;22.30;99.90
26621;DHT22;14253;44.840;10.444;2023-07-29T01:52:13;22.20;99.90
26621;DHT22;14253;44.840;10.444;2023-07-29T01:54:39;22.10;99.90
26621;DHT22;14253;44.840;10.444;2023-07-29T01:57:06;22.10;99.90
26621;DHT22;14253;44.840;10.444;2023-07-29T01:59:32;22.00;99.90
26621;DHT22;14253;44.840;10.444;2023-07-29T02:01:59;22.10;99.90
26621;DHT22;14253;44.840;10.444;2023-07-29T02:04:26;22.00;99.90
26621;DHT22;14253;44.840;10.444;2023-07-29T02:06:52;22.10;99.90
26621;DHT22;14253;44.840;10.444;2023-07-29T02:09:18;22.10;99.90
26621;DHT22;14253;44.840;10.444;2023-07-29T02:11:44;22.10;99.90
26621;DHT22;14253;44.840;10.444;2023-07-29T02:14:10;22.00;99.90
26621;DHT22;14253;44.840;10.444;2023-07-29T02:16:36;22.00;99.90
26621;DHT22;14253;44.840;10.444;2023-07-29T02:19:03;22.00;99.90
26621;DHT22;14253;44.840;10.444;2023-07-29T02:21:29;22.10;99.90
26621;DHT22;14253;44.840;10.444;2023-07-29T02:23:55;22.00;99.90
26621;DHT22;14253;44.840;10.444;2023-07-29T02:26:22;22.00;99.90
26621;DHT22;14253;44.840;10.444;2023-07-29T02:28:48;22.00;99.90
26621;DHT22;14253;44.840;10.444;2023-07-29T02:31:22;22.00;99.90
26621;DHT22;14253;44.840;10.444;2023-07-29T02:33:48;22.00;99.90
26621;DHT22;14253;44.840;10.444;2023-07-29T02:36:16;21.90;99.90
26621;DHT22;14253;44.840;10.444;2023-07-29T02:38:43;22.00;99.90
26621;DHT22;14253;44.840;10.444;2023-07-29T02:41:10;22.00;99.90
26621;DHT22;14253;44.840;10.444;2023-07-29T02:43:38;22.10;99.90
26621;DHT22;14253;44.840;10.444;2023-07-29T02:46:04;22.00;99.90
26621;DHT22;14253;44.840;10.444;2023-07-29T02:48:30;22.00;99.90
26621;DHT22;14253;44.840;10.444;2023-07-29T02:50:57;22.00;99.90
26621;DHT22;14253;44.840;10.444;2023-07-29T02:53:24;22.00;99.90
26621;DHT22;14253;44.840;10.444;2023-07-29T02:55:51;22.00;99.90
26621;DHT22;14253;44.840;10.444;2023-07-29T02:58:16;21.80;99.90
26621;DHT22;14253;44.840;10.444;2023-07-29T03:00:42;21.70;99.90
26621;DHT22;14253;44.840;10.444;2023-07-29T03:03:09;21.70;99.90
26621;DHT22;14253;44.840;10.444;2023-07-29T03:05:35;21.80;99.90
26621;DHT22;14253;44.840;10.444;2023-07-29T03:08:03;21.80;99.90
26621;DHT22;14253;44.840;10.444;2023-07-29T03:10:29;21.80;99.90
26621;DHT22;14253;44.840;10.444;2023-07-29T03:12:55;21.80;99.90
26621;DHT22;14253;44.840;10.444;2023-07-29T03:15:25;21.80;99.90
26621;DHT22;14253;44.840;10.444;2023-07-29T03:17:52;21.80;99.90
26621;DHT22;14253;44.840;10.444;2023-07-29T03:20:19;21.80;99.90
26621;DHT22;14253;44.840;10.444;2023-07-29T03:22:45;21.70;99.90
26621;DHT22;14253;44.840;10.444;2023-07-29T03:25:13;21.70;99.90
26621;DHT22;14253;44.840;10.444;2023-07-29T03:27:39;21.60;99.90
26621;DHT22;14253;44.840;10.444;2023-07-29T03:30:06;21.60;99.90
26621;DHT22;14253;44.840;10.444;2023-07-29T03:32:33;21.50;99.90
26621;DHT22;14253;44.840;10.444;2023-07-29T03:34:59;21.50;99.90
26621;DHT22;14253;44.840;10.444;2023-07-29T03:37:25;21.50;99.90
26621;DHT22;14253;44.840;10.444;2023-07-29T03:39:51;21.40;99.90
26621;DHT22;14253;44.840;10.444;2023-07-29T03:42:18;21.30;99.90
26621;DHT22;14253;44.840;10.444;2023-07-29T03:44:44;21.30;99.90
26621;DHT22;14253;44.840;10.444;2023-07-29T03:47:10;21.30;99.90
26621;DHT22;14253;44.840;10.444;2023-07-29T03:49:39;21.20;99.90
26621;DHT22;14253;44.840;10.444;2023-07-29T03:52:06;21.30;99.90
26621;DHT22;14253;44.840;10.444;2023-07-29T03:54:32;21.30;99.90
26621;DHT22;14253;44.840;10.444;2023-07-29T03:56:58;21.30;99.90
26621;DHT22;14253;44.840;10.444;2023-07-29T03:59:24;21.30;99.90
26621;DHT22;14253;44.840;10.444;2023-07-29T04:01:50;21.30;99.90
26621;DHT22;14253;44.840;10.444;2023-07-29T04:04:16;21.30;99.90
26621;DHT22;14253;44.840;10.444;2023-07-29T04:06:42;21.30;99.90
26621;DHT22;14253;44.840;10.444;2023-07-29T04:09:08;21.30;99.90
26621;DHT22;14253;44.840;10.444;2023-07-29T04:11:34;21.30;99.90
26621;DHT22;14253;44.840;10.444;2023-07-29T04:14:00;21.40;99.90
26621;DHT22;14253;44.840;10.444;2023-07-29T04:16:26;21.50;99.90
26621;DHT22;14253;44.840;10.444;2023-07-29T04:18:54;21.50;99.90
26621;DHT22;14253;44.840;10.444;2023-07-29T04:21:20;21.50;99.90
26621;DHT22;14253;44.840;10.444;2023-07-29T04:23:46;21.40;99.90
26621;DHT22;14253;44.840;10.444;2023-07-29T04:26:12;21.50;99.90
26621;DHT22;14253;44.840;10.444;2023-07-29T04:28:38;21.50;99.90
26621;DHT22;14253;44.840;10.444;2023-07-29T04:31:04;21.40;99.90
26621;DHT22;14253;44.840;10.444;2023-07-29T04:33:31;21.30;99.90
26621;DHT22;14253;44.840;10.444;2023-07-29T04:35:57;21.40;99.90
26621;DHT22;14253;44.840;10.444;2023-07-29T04:38:30;21.40;99.90
26621;DHT22;14253;44.840;10.444;2023-07-29T04:40:57;21.50;99.90
26621;DHT22;14253;44.840;10.444;2023-07-29T04:43:27;21.50;99.90
26621;DHT22;14253;44.840;10.444;2023-07-29T04:45:54;21.50;99.90
26621;DHT22;14253;44.840;10.444;2023-07-29T04:48:20;21.50;99.90
26621;DHT22;14253;44.840;10.444;2023-07-29T04:50:46;21.70;99.90
26621;DHT22;14253;44.840;10.444;2023-07-29T04:53:13;21.80;99.90
26621;DHT22;14253;44.840;10.444;2023-07-29T04:55:41;21.90;99.90
26621;DHT22;14253;44.840;10.444;2023-07-29T04:58:08;22.00;99.90
26621;DHT22;14253;44.840;10.444;2023-07-29T05:00:35;22.10;99.90
26621;DHT22;14253;44.840;10.444;2023-07-29T05:03:02;22.10;99.90
26621;DHT22;14253;44.840;10.444;2023-07-29T05:05:28;22.20;99.90
26621;DHT22;14253;44.840;10.444;2023-07-29T05:07:55;22.20;99.90
26621;DHT22;14253;44.840;10.444;2023-07-29T05:10:21;22.30;99.90
26621;DHT22;14253;44.840;10.444;2023-07-29T05:12:47;22.20;99.90
26621;DHT22;14253;44.840;10.444;2023-07-29T05:15:13;22.10;99.90
26621;DHT22;14253;44.840;10.444;2023-07-29T05:17:39;22.00;99.90
26621;DHT22;14253;44.840;10.444;2023-07-29T05:20:05;22.00;99.90
26621;DHT22;14253;44.840;10.444;2023-07-29T05:22:31;22.10;99.90
26621;DHT22;14253;44.840;10.444;2023-07-29T05:24:57;22.10;99.90
26621;DHT22;14253;44.840;10.444;2023-07-29T05:27:23;22.10;99.90
26621;DHT22;14253;44.840;10.444;2023-07-29T05:29:49;22.20;99.90
26621;DHT22;14253;44.840;10.444;2023-07-29T05:32:15;22.30;99.90
26621;DHT22;14253;44.840;10.444;2023-07-29T05:34:41;22.40;99.90
26621;DHT22;14253;44.840;10.444;2023-07-29T05:37:08;22.50;99.90
26621;DHT22;14253;44.840;10.444;2023-07-29T05:39:34;22.50;99.90
26621;DHT22;14253;44.840;10.444;2023-07-29T05:42:00;22.70;99.90
26621;DHT22;14253;44.840;10.444;2023-07-29T05:44:28;22.60;99.90
26621;DHT22;14253;44.840;10.444;2023-07-29T05:46:56;22.70;99.90
26621;DHT22;14253;44.840;10.444;2023-07-29T05:49:22;22.90;99.90
26621;DHT22;14253;44.840;10.444;2023-07-29T05:51:49;23.00;99.90
26621;DHT22;14253;44.840;10.444;2023-07-29T05:54:18;23.10;99.90
26621;DHT22;14253;44.840;10.444;2023-07-29T05:56:44;23.30;99.90
26621;DHT22;14253;44.840;10.444;2023-07-29T05:59:10;23.40;99.90
26621;DHT22;14253;44.840;10.444;2023-07-29T06:01:36;23.40;99.90
26621;DHT22;14253;44.840;10.444;2023-07-29T06:04:02;23.40;99.90
26621;DHT22;14253;44.840;10.444;2023-07-29T06:06:28;23.40;99.90
26621;DHT22;14253;44.840;10.444;2023-07-29T06:08:54;23.50;99.90
26621;DHT22;14253;44.840;10.444;2023-07-29T06:11:20;23.60;99.90
26621;DHT22;14253;44.840;10.444;2023-07-29T06:13:47;23.70;99.90
26621;DHT22;14253;44.840;10.444;2023-07-29T06:16:14;23.80;99.90
26621;DHT22;14253;44.840;10.444;2023-07-29T06:18:41;23.90;99.90
26621;DHT22;14253;44.840;10.444;2023-07-29T06:21:07;23.90;99.90
26621;DHT22;14253;44.840;10.444;2023-07-29T06:23:36;24.00;99.90
26621;DHT22;14253;44.840;10.444;2023-07-29T06:26:02;24.20;99.90
26621;DHT22;14253;44.840;10.444;2023-07-29T06:28:28;24.50;99.90
26621;DHT22;14253;44.840;10.444;2023-07-29T06:30:54;24.60;99.90
26621;DHT22;14253;44.840;10.444;2023-07-29T06:33:20;24.70;99.90
26621;DHT22;14253;44.840;10.444;2023-07-29T06:35:46;24.70;99.90
26621;DHT22;14253;44.840;10.444;2023-07-29T06:38:12;24.80;99.90
26621;DHT22;14253;44.840;10.444;2023-07-29T06:40:38;24.90;99.90
26621;DHT22;14253;44.840;10.444;2023-07-29T06:43:03;25.20;99.90
26621;DHT22;14253;44.840;10.444;2023-07-29T06:45:29;25.30;99.90
26621;DHT22;14253;44.840;10.444;2023-07-29T06:47:55;25.40;99.90
26621;DHT22;14253;44.840;10.444;2023-07-29T06:50:21;25.80;99.90
26621;DHT22;14253;44.840;10.444;2023-07-29T06:52:47;26.10;99.90
26621;DHT22;14253;44.840;10.444;2023-07-29T06:55:13;26.50;99.90
26621;DHT22;14253;44.840;10.444;2023-07-29T06:57:40;26.70;99.90
26621;DHT22;14253;44.840;10.444;2023-07-29T07:00:06;27.10;99.90
26621;DHT22;14253;44.840;10.444;2023-07-29T07:02:34;27.30;99.90
26621;DHT22;14253;44.840;10.444;2023-07-29T07:05:00;27.60;99.90
26621;DHT22;14253;44.840;10.444;2023-07-29T07:07:26;27.70;99.90
26621;DHT22;14253;44.840;10.444;2023-07-29T07:09:53;28.20;99.90
26621;DHT22;14253;44.840;10.444;2023-07-29T07:12:18;28.50;99.90
26621;DHT22;14253;44.840;10.444;2023-07-29T07:14:44;28.60;99.90
26621;DHT22;14253;44.840;10.444;2023-07-29T07:17:10;28.90;99.90
26621;DHT22;14253;44.840;10.444;2023-07-29T07:19:36;29.10;99.90
26621;DHT22;14253;44.840;10.444;2023-07-29T07:22:03;29.20;99.90
26621;DHT22;14253;44.840;10.444;2023-07-29T07:24:29;29.30;99.90
26621;DHT22;14253;44.840;10.444;2023-07-29T07:26:55;29.50;99.90
26621;DHT22;14253;44.840;10.444;2023-07-29T07:29:21;29.60;99.90
26621;DHT22;14253;44.840;10.444;2023-07-29T07:31:52;29.60;99.90
26621;DHT22;14253;44.840;10.444;2023-07-29T07:34:22;29.50;99.90
26621;DHT22;14253;44.840;10.444;2023-07-29T07:36:49;29.60;99.90
26621;DHT22;14253;44.840;10.444;2023-07-29T07:39:15;29.60;99.90
26621;DHT22;14253;44.840;10.444;2023-07-29T07:41:42;29.60;99.90
26621;DHT22;14253;44.840;10.444;2023-07-29T07:44:08;29.70;99.90
26621;DHT22;14253;44.840;10.444;2023-07-29T07:46:34;30.00;99.90
26621;DHT22;14253;44.840;10.444;2023-07-29T07:49:00;29.90;99.90
26621;DHT22;14253;44.840;10.444;2023-07-29T07:51:26;29.90;99.90
26621;DHT22;14253;44.840;10.444;2023-07-29T07:53:52;30.30;99.90
26621;DHT22;14253;44.840;10.444;2023-07-29T07:56:18;30.20;99.90
26621;DHT22;14253;44.840;10.444;2023-07-29T07:58:44;30.20;99.90
26621;DHT22;14253;44.840;10.444;2023-07-29T08:01:11;30.20;99.90
26621;DHT22;14253;44.840;10.444;2023-07-29T08:03:37;30.00;99.90
26621;DHT22;14253;44.840;10.444;2023-07-29T08:06:04;30.20;99.90
26621;DHT22;14253;44.840;10.444;2023-07-29T08:08:30;30.60;99.90
26621;DHT22;14253;44.840;10.444;2023-07-29T08:10:56;30.50;99.90
26621;DHT22;14253;44.840;10.444;2023-07-29T08:13:23;30.10;99.90
26621;DHT22;14253;44.840;10.444;2023-07-29T08:15:52;29.70;99.90
26621;DHT22;14253;44.840;10.444;2023-07-29T08:18:19;29.90;99.90
26621;DHT22;14253;44.840;10.444;2023-07-29T08:20:55;29.80;99.90
26621;DHT22;14253;44.840;10.444;2023-07-29T08:23:24;29.80;99.90
26621;DHT22;14253;44.840;10.444;2023-07-29T08:25:55;30.00;99.90
26621;DHT22;14253;44.840;10.444;2023-07-29T08:28:22;30.10;99.90
26621;DHT22;14253;44.840;10.444;2023-07-29T08:30:48;30.40;99.90
26621;DHT22;14253;44.840;10.444;2023-07-29T08:33:15;30.80;99.90
26621;DHT22;14253;44.840;10.444;2023-07-29T08:35:41;31.00;99.90
26621;DHT22;14253;44.840;10.444;2023-07-29T08:38:08;31.20;99.90
26621;DHT22;14253;44.840;10.444;2023-07-29T08:40:35;31.40;99.90
26621;DHT22;14253;44.840;10.444;2023-07-29T08:43:06;31.50;99.90
26621;DHT22;14253;44.840;10.444;2023-07-29T08:45:35;31.80;99.90
26621;DHT22;14253;44.840;10.444;2023-07-29T08:48:04;32.20;99.90
26621;DHT22;14253;44.840;10.444;2023-07-29T08:50:33;32.40;99.90
26621;DHT22;14253;44.840;10.444;2023-07-29T08:53:00;32.50;99.90
26621;DHT22;14253;44.840;10.444;2023-07-29T08:55:26;32.10;99.90
26621;DHT22;14253;44.840;10.444;2023-07-29T08:57:53;32.00;99.90
26621;DHT22;14253;44.840;10.444;2023-07-29T09:00:20;31.90;99.90
26621;DHT22;14253;44.840;10.444;2023-07-29T09:02:46;32.10;99.90
26621;DHT22;14253;44.840;10.444;2023-07-29T09:05:12;32.10;99.90
26621;DHT22;14253;44.840;10.444;2023-07-29T09:07:40;32.10;99.90
26621;DHT22;14253;44.840;10.444;2023-07-29T09:10:09;31.50;99.90
26621;DHT22;14253;44.840;10.444;2023-07-29T09:12:36;31.50;99.90
26621;DHT22;14253;44.840;10.444;2023-07-29T09:15:03;31.40;99.90
26621;DHT22;14253;44.840;10.444;2023-07-29T09:17:32;31.50;99.90
26621;DHT22;14253;44.840;10.444;2023-07-29T09:19:58;31.90;99.90
26621;DHT22;14253;44.840;10.444;2023-07-29T09:22:27;32.40;99.90
26621;DHT22;14253;44.840;10.444;2023-07-29T09:24:53;32.60;99.90
26621;DHT22;14253;44.840;10.444;2023-07-29T09:27:26;32.80;99.90
26621;DHT22;14253;44.840;10.444;2023-07-29T09:29:53;32.90;99.90
26621;DHT22;14253;44.840;10.444;2023-07-29T09:32:24;33.40;99.90
26621;DHT22;14253;44.840;10.444;2023-07-29T09:34:50;33.50;99.90
26621;DHT22;14253;44.840;10.444;2023-07-29T09:37:23;33.30;99.90
26621;DHT22;14253;44.840;10.444;2023-07-29T09:39:50;33.40;99.90
26621;DHT22;14253;44.840;10.444;2023-07-29T09:42:20;33.20;99.90
26621;DHT22;14253;44.840;10.444;2023-07-29T09:44:48;32.60;99.90
26621;DHT22;14253;44.840;10.444;2023-07-29T09:47:25;32.40;99.90
26621;DHT22;14253;44.840;10.444;2023-07-29T09:49:51;32.40;99.90
26621;DHT22;14253;44.840;10.444;2023-07-29T09:52:19;32.80;99.90
26621;DHT22;14253;44.840;10.444;2023-07-29T09:54:46;32.80;99.90
26621;DHT22;14253;44.840;10.444;2023-07-29T09:57:16;33.30;99.90
26621;DHT22;14253;44.840;10.444;2023-07-29T09:59:56;33.30;99.90
26621;DHT22;14253;44.840;10.444;2023-07-29T10:02:22;33.40;99.90
26621;DHT22;14253;44.840;10.444;2023-07-29T10:04:51;33.40;99.90
26621;DHT22;14253;44.840;10.444;2023-07-29T10:07:18;33.30;99.90
26621;DHT22;14253;44.840;10.444;2023-07-29T10:09:45;33.30;99.90
26621;DHT22;14253;44.840;10.444;2023-07-29T10:12:11;33.70;99.90
26621;DHT22;14253;44.840;10.444;2023-07-29T10:14:38;34.20;99.90
26621;DHT22;14253;44.840;10.444;2023-07-29T10:17:07;34.20;99.90
26621;DHT22;14253;44.840;10.444;2023-07-29T10:19:35;34.00;99.90
26621;DHT22;14253;44.840;10.444;2023-07-29T10:22:03;33.90;99.90
26621;DHT22;14253;44.840;10.444;2023-07-29T10:24:30;33.40;99.90
26621;DHT22;14253;44.840;10.444;2023-07-29T10:26:59;33.10;99.90
26621;DHT22;14253;44.840;10.444;2023-07-29T10:29:31;33.10;99.90
26621;DHT22;14253;44.840;10.444;2023-07-29T10:32:01;33.20;99.90
26621;DHT22;14253;44.840;10.444;2023-07-29T10:34:30;33.30;99.90
26621;DHT22;14253;44.840;10.444;2023-07-29T10:36:57;33.80;99.90
26621;DHT22;14253;44.840;10.444;2023-07-29T10:39:25;34.20;99.90
26621;DHT22;14253;44.840;10.444;2023-07-29T10:42:02;33.70;99.90
26621;DHT22;14253;44.840;10.444;2023-07-29T10:47:13;34.20;99.90
26621;DHT22;14253;44.840;10.444;2023-07-29T10:49:49;34.50;99.90
26621;DHT22;14253;44.840;10.444;2023-07-29T10:52:17;34.70;99.90
26621;DHT22;14253;44.840;10.444;2023-07-29T10:54:53;34.60;99.90
26621;DHT22;14253;44.840;10.444;2023-07-29T10:57:45;34.50;99.90
26621;DHT22;14253;44.840;10.444;2023-07-29T11:00:11;34.30;99.90
26621;DHT22;14253;44.840;10.444;2023-07-29T11:02:41;33.80;99.90
26621;DHT22;14253;44.840;10.444;2023-07-29T11:05:17;33.80;99.90
26621;DHT22;14253;44.840;10.444;2023-07-29T11:07:48;33.70;99.90
26621;DHT22;14253;44.840;10.444;2023-07-29T11:10:14;33.50;99.90
26621;DHT22;14253;44.840;10.444;2023-07-29T11:12:46;33.40;99.90
26621;DHT22;14253;44.840;10.444;2023-07-29T11:17:45;33.30;99.90
26621;DHT22;14253;44.840;10.444;2023-07-29T11:20:12;33.20;99.90
26621;DHT22;14253;44.840;10.444;2023-07-29T11:22:38;33.40;99.90
26621;DHT22;14253;44.840;10.444;2023-07-29T11:25:07;32.90;99.90
26621;DHT22;14253;44.840;10.444;2023-07-29T11:27:33;32.60;99.90
26621;DHT22;14253;44.840;10.444;2023-07-29T11:30:00;32.60;99.90
26621;DHT22;14253;44.840;10.444;2023-07-29T11:32:27;32.60;99.90
26621;DHT22;14253;44.840;10.444;2023-07-29T11:34:53;32.90;99.90
26621;DHT22;14253;44.840;10.444;2023-07-29T11:37:19;33.00;99.90
26621;DHT22;14253;44.840;10.444;2023-07-29T11:39:47;33.60;99.90
26621;DHT22;14253;44.840;10.444;2023-07-29T11:42:14;33.70;99.90
26621;DHT22;14253;44.840;10.444;2023-07-29T11:44:41;34.10;99.90
26621;DHT22;14253;44.840;10.444;2023-07-29T11:47:10;34.10;99.90
26621;DHT22;14253;44.840;10.444;2023-07-29T11:49:39;34.00;99.90
26621;DHT22;14253;44.840;10.444;2023-07-29T11:52:09;34.30;99.90
26621;DHT22;14253;44.840;10.444;2023-07-29T11:54:36;34.70;99.90
26621;DHT22;14253;44.840;10.444;2023-07-29T11:57:08;35.00;99.90
26621;DHT22;14253;44.840;10.444;2023-07-29T11:59:36;35.40;99.90
26621;DHT22;14253;44.840;10.444;2023-07-29T12:02:08;35.80;99.90
26621;DHT22;14253;44.840;10.444;2023-07-29T12:04:35;35.70;99.90
26621;DHT22;14253;44.840;10.444;2023-07-29T12:07:02;35.20;99.90
26621;DHT22;14253;44.840;10.444;2023-07-29T12:09:28;34.90;99.90
26621;DHT22;14253;44.840;10.444;2023-07-29T12:11:54;34.40;99.90
26621;DHT22;14253;44.840;10.444;2023-07-29T12:14:20;34.10;99.90
26621;DHT22;14253;44.840;10.444;2023-07-29T12:16:48;33.80;99.90
26621;DHT22;14253;44.840;10.444;2023-07-29T12:19:15;34.00;99.90
26621;DHT22;14253;44.840;10.444;2023-07-29T12:21:44;34.30;99.90
26621;DHT22;14253;44.840;10.444;2023-07-29T12:24:12;34.50;99.90
26621;DHT22;14253;44.840;10.444;2023-07-29T12:26:40;34.60;99.90
26621;DHT22;14253;44.840;10.444;2023-07-29T12:29:16;34.60;99.90
26621;DHT22;14253;44.840;10.444;2023-07-29T12:31:42;34.70;99.90
26621;DHT22;14253;44.840;10.444;2023-07-29T12:34:09;34.80;99.90
26621;DHT22;14253;44.840;10.444;2023-07-29T12:36:46;34.80;99.90
26621;DHT22;14253;44.840;10.444;2023-07-29T12:39:21;34.70;99.90
26621;DHT22;14253;44.840;10.444;2023-07-29T12:41:49;34.80;99.90
26621;DHT22;14253;44.840;10.444;2023-07-29T12:44:15;34.70;99.90
26621;DHT22;14253;44.840;10.444;2023-07-29T12:46:41;35.10;99.90
26621;DHT22;14253;44.840;10.444;2023-07-29T12:49:08;35.50;99.90
26621;DHT22;14253;44.840;10.444;2023-07-29T12:51:34;35.60;99.90
26621;DHT22;14253;44.840;10.444;2023-07-29T12:54:00;35.60;99.90
26621;DHT22;14253;44.840;10.444;2023-07-29T12:56:26;35.70;99.90
26621;DHT22;14253;44.840;10.444;2023-07-29T12:58:52;35.70;99.90
26621;DHT22;14253;44.840;10.444;2023-07-29T13:01:18;35.50;99.90
26621;DHT22;14253;44.840;10.444;2023-07-29T13:03:44;35.50;99.90
26621;DHT22;14253;44.840;10.444;2023-07-29T13:06:11;35.30;99.90
26621;DHT22;14253;44.840;10.444;2023-07-29T13:08:37;35.00;99.90
26621;DHT22;14253;44.840;10.444;2023-07-29T13:11:03;35.30;99.90
26621;DHT22;14253;44.840;10.444;2023-07-29T13:13:30;35.30;99.90
26621;DHT22;14253;44.840;10.444;2023-07-29T13:15:57;35.30;99.90
26621;DHT22;14253;44.840;10.444;2023-07-29T13:18:23;35.20;99.90
26621;DHT22;14253;44.840;10.444;2023-07-29T13:20:49;35.00;99.90
26621;DHT22;14253;44.840;10.444;2023-07-29T13:23:15;35.10;99.90
26621;DHT22;14253;44.840;10.444;2023-07-29T13:25:42;35.10;99.90
26621;DHT22;14253;44.840;10.444;2023-07-29T13:28:11;34.90;99.90
26621;DHT22;14253;44.840;10.444;2023-07-29T13:30:39;34.60;99.90
26621;DHT22;14253;44.840;10.444;2023-07-29T13:33:06;34.60;99.90
26621;DHT22;14253;44.840;10.444;2023-07-29T13:35:33;34.70;99.90
26621;DHT22;14253;44.840;10.444;2023-07-29T13:38:00;34.80;99.90
26621;DHT22;14253;44.840;10.444;2023-07-29T13:40:26;34.80;99.90
26621;DHT22;14253;44.840;10.444;2023-07-29T13:42:52;34.90;99.90
26621;DHT22;14253;44.840;10.444;2023-07-29T13:45:18;35.00;99.90
26621;DHT22;14253;44.840;10.444;2023-07-29T13:47:45;35.10;99.90
26621;DHT22;14253;44.840;10.444;2023-07-29T13:50:10;35.00;99.90
26621;DHT22;14253;44.840;10.444;2023-07-29T13:52:37;35.20;99.90
26621;DHT22;14253;44.840;10.444;2023-07-29T13:55:05;35.50;99.90
26621;DHT22;14253;44.840;10.444;2023-07-29T13:57:31;35.40;99.90
26621;DHT22;14253;44.840;10.444;2023-07-29T13:59:58;35.60;99.90
26621;DHT22;14253;44.840;10.444;2023-07-29T14:02:24;35.80;99.90
26621;DHT22;14253;44.840;10.444;2023-07-29T14:04:54;35.90;99.90
26621;DHT22;14253;44.840;10.444;2023-07-29T14:07:20;36.00;99.90
26621;DHT22;14253;44.840;10.444;2023-07-29T14:09:46;36.20;99.90
26621;DHT22;14253;44.840;10.444;2023-07-29T14:12:13;36.00;99.90
26621;DHT22;14253;44.840;10.444;2023-07-29T14:14:43;36.00;99.90
26621;DHT22;14253;44.840;10.444;2023-07-29T14:17:09;36.10;99.90
26621;DHT22;14253;44.840;10.444;2023-07-29T14:19:36;35.80;99.90
26621;DHT22;14253;44.840;10.444;2023-07-29T14:22:02;35.50;99.90
26621;DHT22;14253;44.840;10.444;2023-07-29T14:24:28;35.30;99.90
26621;DHT22;14253;44.840;10.444;2023-07-29T14:26:54;35.60;99.90
26621;DHT22;14253;44.840;10.444;2023-07-29T14:29:20;35.60;99.90
26621;DHT22;14253;44.840;10.444;2023-07-29T14:31:46;35.80;99.90
26621;DHT22;14253;44.840;10.444;2023-07-29T14:34:12;35.80;99.90
26621;DHT22;14253;44.840;10.444;2023-07-29T14:36:38;36.00;99.90
26621;DHT22;14253;44.840;10.444;2023-07-29T14:39:04;35.70;99.90
26621;DHT22;14253;44.840;10.444;2023-07-29T14:41:32;35.70;99.90
26621;DHT22;14253;44.840;10.444;2023-07-29T14:44:04;35.60;99.90
26621;DHT22;14253;44.840;10.444;2023-07-29T14:46:30;35.50;99.90
26621;DHT22;14253;44.840;10.444;2023-07-29T14:48:56;35.30;99.90
26621;DHT22;14253;44.840;10.444;2023-07-29T14:51:23;35.30;99.90
26621;DHT22;14253;44.840;10.444;2023-07-29T14:53:49;35.30;99.90
26621;DHT22;14253;44.840;10.444;2023-07-29T14:56:18;35.10;99.90
26621;DHT22;14253;44.840;10.444;2023-07-29T14:58:44;35.00;99.90
26621;DHT22;14253;44.840;10.444;2023-07-29T15:01:11;35.10;99.90
26621;DHT22;14253;44.840;10.444;2023-07-29T15:03:38;35.20;99.90
26621;DHT22;14253;44.840;10.444;2023-07-29T15:06:04;35.00;99.90
26621;DHT22;14253;44.840;10.444;2023-07-29T15:08:30;35.00;99.90
26621;DHT22;14253;44.840;10.444;2023-07-29T15:10:56;34.60;99.90
26621;DHT22;14253;44.840;10.444;2023-07-29T15:13:22;34.20;99.90
26621;DHT22;14253;44.840;10.444;2023-07-29T15:15:48;34.20;99.90
26621;DHT22;14253;44.840;10.444;2023-07-29T15:18:16;34.40;99.90
26621;DHT22;14253;44.840;10.444;2023-07-29T15:20:42;34.60;99.90
26621;DHT22;14253;44.840;10.444;2023-07-29T15:23:07;34.70;99.90
26621;DHT22;14253;44.840;10.444;2023-07-29T15:25:33;34.90;99.90
26621;DHT22;14253;44.840;10.444;2023-07-29T15:27:59;35.00;99.90
26621;DHT22;14253;44.840;10.444;2023-07-29T15:30:25;35.30;99.90